createdAt,value
2023-05-08T00:02:35.514Z,2.83
2023-05-08T00:07:38.017Z,2.81
2023-05-08T00:12:39.550Z,2.77
2023-05-08T00:17:41.444Z,2.73
2023-05-08T00:22:43.144Z,2.67
2023-05-08T00:27:44.693Z,2.62
2023-05-08T00:32:47.063Z,2.57
2023-05-08T00:37:48.734Z,2.54
2023-05-08T00:42:50.239Z,2.51
2023-05-08T00:47:52.064Z,2.48
2023-05-08T00:52:54.088Z,2.46
2023-05-08T00:57:55.716Z,2.42
2023-05-08T01:02:59.154Z,2.39
2023-05-08T01:08:00.804Z,2.31
2023-05-08T01:13:18.819Z,2.19
2023-05-08T01:18:35.030Z,2.05
2023-05-08T01:23:55.252Z,1.96
2023-05-08T01:29:21.245Z,1.88
2023-05-08T01:34:30.837Z,1.86
2023-05-08T01:40:19.263Z,1.86
2023-05-08T01:45:33.179Z,1.85
2023-05-08T01:50:41.224Z,1.84
2023-05-08T01:55:46.501Z,1.81
2023-05-08T02:00:48.919Z,1.78
2023-05-08T02:05:52.359Z,1.74
2023-05-08T02:10:56.135Z,1.68
2023-05-08T02:15:59.254Z,1.61
2023-05-08T02:21:04.125Z,1.54
2023-05-08T02:26:06.018Z,1.48
2023-05-08T02:31:09.678Z,1.41
2023-05-08T02:36:14.157Z,1.39
2023-05-08T02:41:18.204Z,1.38
2023-05-08T02:46:35.045Z,1.36
2023-05-08T02:52:01.826Z,1.37
2023-05-08T02:57:14.833Z,1.36
2023-05-08T03:02:22.398Z,1.39
2023-05-08T03:07:28.734Z,1.47
2023-05-08T03:12:35.012Z,1.54
2023-05-08T03:17:42.821Z,1.64
2023-05-08T03:22:46.701Z,1.74
2023-05-08T03:27:50.471Z,1.92
2023-05-08T03:32:53.649Z,2.56
2023-05-08T03:37:55.210Z,4.30
2023-05-08T03:42:58.389Z,6.08
2023-05-08T03:48:00.646Z,6.41
2023-05-08T03:53:02.556Z,5.68
2023-05-08T03:58:13.362Z,5.17
2023-05-08T04:03:24.187Z,4.73
2023-05-08T04:08:32.275Z,4.43
2023-05-08T04:13:39.430Z,4.28
2023-05-08T04:18:46.325Z,4.24
2023-05-08T04:23:51.767Z,4.22
2023-05-08T04:28:53.902Z,4.25
2023-05-08T04:33:55.934Z,4.30
2023-05-08T04:38:59.079Z,4.44
2023-05-08T04:44:01.710Z,4.55
2023-05-08T04:49:03.268Z,4.67
2023-05-08T04:54:04.810Z,4.80
2023-05-08T04:59:06.767Z,4.88
2023-05-08T05:04:08.327Z,4.99
2023-05-08T05:09:11.830Z,5.15
2023-05-08T05:14:13.342Z,5.32
2023-05-08T05:19:14.845Z,5.44
2023-05-08T05:24:16.711Z,5.50
2023-05-08T05:29:18.264Z,5.64
2023-05-08T05:34:19.832Z,5.77
2023-05-08T05:39:21.331Z,5.76
2023-05-08T05:44:22.887Z,5.83
2023-05-08T05:49:24.485Z,6.01
2023-05-08T05:54:26.491Z,6.09
2023-05-08T05:59:28.013Z,6.21
2023-05-08T06:04:29.693Z,6.28
2023-05-08T06:09:31.317Z,6.41
2023-05-08T06:14:32.803Z,6.66
2023-05-08T06:19:34.343Z,6.85
2023-05-08T06:24:36.489Z,6.99
2023-05-08T06:29:38.012Z,7.13
2023-05-08T06:34:39.508Z,7.22
2023-05-08T06:39:41.244Z,7.33
2023-05-08T06:44:42.873Z,7.43
2023-05-08T06:49:44.603Z,7.55
2023-05-08T06:54:46.230Z,7.71
2023-05-08T06:59:47.727Z,7.78
2023-05-08T07:04:49.327Z,7.83
2023-05-08T07:09:50.933Z,7.91
2023-05-08T07:14:52.433Z,8.05
2023-05-08T07:19:53.961Z,8.18
2023-05-08T07:24:55.470Z,8.29
2023-05-08T07:29:58.862Z,8.49
2023-05-08T07:35:00.544Z,8.61
2023-05-08T07:40:02.093Z,8.79
2023-05-08T07:45:05.764Z,8.99
2023-05-08T07:50:07.677Z,9.05
2023-05-08T07:55:10.219Z,9.15
2023-05-08T08:00:20.955Z,9.35
2023-05-08T08:05:22.519Z,9.66
2023-05-08T08:10:24.066Z,9.91
2023-05-08T08:15:25.574Z,10.14
2023-05-08T08:20:27.534Z,10.33
2023-05-08T08:25:29.118Z,10.37
2023-05-08T08:30:37.011Z,10.31
2023-05-08T08:35:38.481Z,10.21
2023-05-08T08:40:41.111Z,10.28
2023-05-08T08:45:42.600Z,10.38
2023-05-08T08:50:48.732Z,10.38
2023-05-08T08:55:53.840Z,10.55
2023-05-08T09:00:57.100Z,10.97
2023-05-08T09:06:03.396Z,11.21
2023-05-08T09:11:05.020Z,11.39
2023-05-08T09:16:06.945Z,11.63
2023-05-08T09:21:08.493Z,11.85
2023-05-08T09:26:10.006Z,11.94
2023-05-08T09:31:11.672Z,12.01
2023-05-08T09:36:28.765Z,12.06
2023-05-08T09:41:30.415Z,11.98
2023-05-08T09:46:34.100Z,12.05
2023-05-08T09:51:35.762Z,12.39
2023-05-08T09:56:39.576Z,12.88
2023-05-08T10:01:42.132Z,13.42
2023-05-08T10:06:56.583Z,13.64
2023-05-08T10:11:58.523Z,13.77
2023-05-08T10:17:05.884Z,13.75
2023-05-08T10:22:11.389Z,13.78
2023-05-08T10:27:48.167Z,13.84
2023-05-08T10:32:55.379Z,13.87
2023-05-08T10:37:58.639Z,14.07
2023-05-08T10:43:00.647Z,14.25
2023-05-08T10:48:19.409Z,14.26
2023-05-08T10:53:31.432Z,14.09
2023-05-08T10:58:34.508Z,14.21
2023-05-08T11:03:41.371Z,14.15
2023-05-08T11:08:45.204Z,13.82
2023-05-08T11:13:58.482Z,13.55
2023-05-08T11:19:21.197Z,13.27
2023-05-08T11:24:36.063Z,13.15
2023-05-08T11:29:38.575Z,13.31
2023-05-08T11:34:43.489Z,13.56
2023-05-08T11:39:45.804Z,13.72
2023-05-08T11:44:47.638Z,13.75
2023-05-08T11:49:49.202Z,13.88
2023-05-08T11:54:50.733Z,14.14
2023-05-08T11:59:52.291Z,14.25
2023-05-08T12:04:54.552Z,14.28
2023-05-08T12:09:56.082Z,14.47
2023-05-08T12:14:57.570Z,14.76
2023-05-08T12:20:16.962Z,15.01
2023-05-08T12:25:20.709Z,15.13
2023-05-08T12:30:29.569Z,15.10
2023-05-08T12:35:32.086Z,15.07
2023-05-08T12:40:36.653Z,15.20
2023-05-08T12:45:40.906Z,15.33
2023-05-08T12:50:45.808Z,15.47
2023-05-08T12:55:52.847Z,15.65
2023-05-08T13:01:10.235Z,15.90
2023-05-08T13:06:22.322Z,15.48
2023-05-08T13:11:31.797Z,14.77
2023-05-08T13:16:42.948Z,14.81
2023-05-08T13:21:47.669Z,14.95
2023-05-08T13:26:49.161Z,15.13
2023-05-08T13:31:50.695Z,15.30
2023-05-08T13:36:52.564Z,15.70
2023-05-08T13:41:54.528Z,15.81
2023-05-08T13:46:56.129Z,15.81
2023-05-08T13:51:57.628Z,15.73
2023-05-08T13:56:59.198Z,15.95
2023-05-08T14:02:00.971Z,16.04
2023-05-08T14:07:02.565Z,16.25
2023-05-08T14:12:04.460Z,16.46
2023-05-08T14:17:06.562Z,16.88
2023-05-08T14:22:08.067Z,17.13
2023-05-08T14:27:09.979Z,16.70
2023-05-08T14:32:11.784Z,15.75
2023-05-08T14:37:13.381Z,15.12
2023-05-08T14:42:22.896Z,14.96
2023-05-08T14:47:25.857Z,15.53
2023-05-08T14:52:27.510Z,15.96
2023-05-08T14:57:29.072Z,16.18
2023-05-08T15:02:30.668Z,16.65
2023-05-08T15:07:32.620Z,16.82
2023-05-08T15:12:34.454Z,16.94
2023-05-08T15:17:36.625Z,16.93
2023-05-08T15:22:38.248Z,16.64
2023-05-08T15:27:39.822Z,15.99
2023-05-08T15:32:43.392Z,15.38
2023-05-08T15:37:44.998Z,15.08
2023-05-08T15:42:46.842Z,15.45
2023-05-08T15:47:48.493Z,16.22
2023-05-08T15:52:50.021Z,16.75
2023-05-08T15:57:51.559Z,17.18
2023-05-08T16:02:53.131Z,17.51
2023-05-08T16:07:55.612Z,17.52
2023-05-08T16:12:57.216Z,17.26
2023-05-08T16:17:58.793Z,16.70
2023-05-08T16:23:00.439Z,15.95
2023-05-08T16:28:02.002Z,15.68
2023-05-08T16:33:03.674Z,15.47
2023-05-08T16:38:06.170Z,15.04
2023-05-08T16:43:08.755Z,14.70
2023-05-08T16:48:10.412Z,14.68
2023-05-08T16:53:12.013Z,14.58
2023-05-08T16:58:13.698Z,14.45
2023-05-08T17:03:15.396Z,14.37
2023-05-08T17:08:17.697Z,14.34
2023-05-08T17:13:19.269Z,14.42
2023-05-08T17:18:20.972Z,14.41
2023-05-08T17:23:22.558Z,14.33
2023-05-08T17:28:24.433Z,14.16
2023-05-08T17:33:26.049Z,13.91
2023-05-08T17:38:28.111Z,13.72
2023-05-08T17:43:30.946Z,13.56
2023-05-08T17:48:33.382Z,13.37
2023-05-08T17:53:35.024Z,13.17
2023-05-08T17:58:36.564Z,12.88
2023-05-08T18:03:38.262Z,12.59
2023-05-08T18:08:41.458Z,12.27
2023-05-08T18:13:43.682Z,11.94
2023-05-08T18:18:45.648Z,11.70
2023-05-08T18:23:47.218Z,11.47
2023-05-08T18:28:48.752Z,11.21
2023-05-08T18:33:50.250Z,10.96
2023-05-08T18:38:51.850Z,10.76
2023-05-08T18:43:53.382Z,10.58
2023-05-08T18:48:54.886Z,10.39
2023-05-08T18:53:57.306Z,10.21
2023-05-08T18:59:00.168Z,10.03
2023-05-08T19:04:02.821Z,9.86
2023-05-08T19:09:04.386Z,9.69
2023-05-08T19:14:05.905Z,9.52
2023-05-08T19:19:07.500Z,9.35
2023-05-08T19:24:09.012Z,9.20
2023-05-08T19:29:10.692Z,9.06
2023-05-08T19:34:12.209Z,8.93
2023-05-08T19:39:14.608Z,8.77
2023-05-08T19:44:16.232Z,8.66
2023-05-08T19:49:17.743Z,8.50
2023-05-08T19:54:19.246Z,8.38
2023-05-08T19:59:20.712Z,8.26
2023-05-08T20:04:24.139Z,8.11
2023-05-08T20:09:25.715Z,7.96
2023-05-08T20:14:27.194Z,7.81
2023-05-08T20:19:28.762Z,7.68
2023-05-08T20:24:30.400Z,7.59
2023-05-08T20:29:35.379Z,7.51
2023-05-08T20:34:36.920Z,7.39
2023-05-08T20:39:38.456Z,7.28
2023-05-08T20:44:39.995Z,7.17
2023-05-08T20:49:41.498Z,7.07
2023-05-08T20:54:45.469Z,7.02
2023-05-08T20:59:47.367Z,6.95
2023-05-08T21:04:48.902Z,6.85
2023-05-08T21:09:50.473Z,6.70
2023-05-08T21:14:52.115Z,6.57
2023-05-08T21:19:53.668Z,6.44
2023-05-08T21:24:55.391Z,6.34
2023-05-08T21:29:56.963Z,6.25
2023-05-08T21:34:58.517Z,6.13
2023-05-08T21:40:00.041Z,5.97
2023-05-08T21:45:01.630Z,5.85
2023-05-08T21:50:03.850Z,5.78
2023-05-08T21:55:08.759Z,5.72
2023-05-08T22:00:11.267Z,5.65
2023-05-08T22:05:13.014Z,5.56
2023-05-08T22:10:14.790Z,5.47
2023-05-08T22:15:29.096Z,5.42
2023-05-08T22:20:31.983Z,5.35
2023-05-08T22:25:33.497Z,5.30
2023-05-08T22:30:41.898Z,5.24
2023-05-08T22:35:43.602Z,5.16
2023-05-08T22:40:47.695Z,5.11
2023-05-08T22:45:49.831Z,5.07
2023-05-08T22:50:51.758Z,4.97
2023-05-08T22:55:53.266Z,4.89
2023-05-08T23:00:55.727Z,4.86
2023-05-08T23:05:57.290Z,4.80
2023-05-08T23:10:58.822Z,4.73
2023-05-08T23:16:00.422Z,4.60
2023-05-08T23:21:06.665Z,4.51
2023-05-08T23:26:08.237Z,4.46
2023-05-08T23:31:09.991Z,4.42
2023-05-08T23:36:11.689Z,4.37
2023-05-08T23:41:13.948Z,4.30
2023-05-08T23:46:15.857Z,4.17
2023-05-08T23:51:17.349Z,4.07
2023-05-08T23:56:18.826Z,3.97
